Time;durP1;ratioP1;P1;durP2;ratioP2;P2;SDS_P1;SDS_P2;PMS_P1;PMS_P2;Temp;Humidity;BMP_temperature;BMP_pressure;BME280_temperature;BME280_humidity;BME280_pressure;Samples;Min_cycle;Max_cycle;Signal;HPM_P1;HPM_P2
2021/12/12 00:01:42;;;;;;;3.77;3.57;;;16.60;66.30;;;;;;5047622;28;43898;-69
2021/12/12 00:04:13;;;;;;;3.60;3.50;;;16.50;66.50;;;;;;5046898;28;44192;-69
2021/12/12 00:06:43;;;;;;;3.97;3.77;;;16.40;66.50;;;;;;5046484;28;44004;-69
2021/12/12 00:09:15;;;;;;;3.30;3.20;;;16.40;66.70;;;;;;5047300;28;43841;-68
2021/12/12 00:11:42;;;;;;;3.80;3.67;;;16.30;66.90;;;;;;5029278;28;44019;-68
2021/12/12 00:14:12;;;;;;;3.93;3.70;;;16.30;67.00;;;;;;5046679;28;44018;-69
2021/12/12 00:16:40;;;;;;;3.30;3.20;;;16.30;67.10;;;;;;5046585;28;43968;-69
2021/12/12 00:19:08;;;;;;;3.60;3.40;;;16.30;67.30;;;;;;5028788;28;44019;-69
2021/12/12 00:21:37;;;;;;;3.33;3.23;;;16.30;67.50;;;;;;5047268;28;43543;-69
2021/12/12 00:24:05;;;;;;;3.30;3.20;;;16.30;67.40;;;;;;5046573;28;44005;-68
2021/12/12 00:26:35;;;;;;;3.87;3.57;;;16.40;67.10;;;;;;5028171;28;45406;-69
2021/12/12 00:29:03;;;;;;;3.53;3.33;;;16.40;66.70;;;;;;5028598;28;43982;-70
2021/12/12 00:31:31;;;;;;;3.40;3.30;;;16.40;66.60;;;;;;5028919;28;44065;-69
2021/12/12 00:33:59;;;;;;;3.30;3.10;;;16.40;66.70;;;;;;5046890;28;43735;-69
2021/12/12 00:36:28;;;;;;;3.60;3.50;;;16.40;66.80;;;;;;5046386;28;43391;-68
2021/12/12 00:38:58;;;;;;;3.33;3.23;;;16.40;67.00;;;;;;5028420;28;43395;-68
2021/12/12 00:41:27;;;;;;;3.47;3.37;;;16.30;67.00;;;;;;5046847;28;44104;-69
2021/12/12 00:43:56;;;;;;;3.20;3.10;;;16.30;67.20;;;;;;5028205;28;45492;-69
2021/12/12 00:46:24;;;;;;;3.27;3.07;;;16.30;67.30;;;;;;5046207;28;44049;-69
2021/12/12 00:48:52;;;;;;;3.20;3.10;;;16.20;67.20;;;;;;5046447;28;43923;-69
2021/12/12 00:51:23;;;;;;;3.63;3.43;;;16.20;67.30;;;;;;5046706;28;44250;-69
2021/12/12 00:53:51;;;;;;;2.90;2.80;;;16.20;67.30;;;;;;5028287;28;46134;-68
2021/12/12 00:56:19;;;;;;;3.13;3.03;;;16.20;67.40;;;;;;5028032;28;43825;-69
2021/12/12 00:58:47;;;;;;;3.10;3.00;;;16.20;67.50;;;;;;5046375;28;44009;-69
2021/12/12 01:01:18;;;;;;;3.70;3.40;;;16.20;68.30;;;;;;5046750;28;44049;-69
2021/12/12 01:03:47;;;;;;;3.40;3.20;;;16.20;67.60;;;;;;5046466;28;43953;-69
2021/12/12 01:06:15;;;;;;;3.27;3.07;;;16.30;67.30;;;;;;5045953;28;44139;-69
2021/12/12 01:08:44;;;;;;;3.10;3.00;;;16.50;67.00;;;;;;5046604;28;43392;-68
2021/12/12 01:11:14;;;;;;;2.90;2.80;;;16.60;66.60;;;;;;5046575;28;44227;-69
2021/12/12 01:13:42;;;;;;;2.80;2.70;;;16.70;66.20;;;;;;5046161;28;44164;-68
2021/12/12 01:16:13;;;;;;;2.97;2.87;;;16.70;66.00;;;;;;5045943;28;43993;-69
2021/12/12 01:18:44;;;;;;;2.30;2.30;;;16.60;66.00;;;;;;5048898;28;43905;-68
2021/12/12 01:21:16;;;;;;;2.77;2.67;;;16.60;66.20;;;;;;5050286;28;43461;-69
2021/12/12 01:23:47;;;;;;;2.80;2.70;;;16.50;66.30;;;;;;5043670;28;43988;-69
2021/12/12 01:26:15;;;;;;;3.30;3.20;;;16.40;66.50;;;;;;5012721;28;44153;-68
2021/12/12 01:28:45;;;;;;;3.00;2.90;;;16.40;66.70;;;;;;5049630;28;43913;-69
2021/12/12 01:31:15;;;;;;;2.90;2.73;;;16.30;66.80;;;;;;5049945;28;44270;-69
2021/12/12 01:33:44;;;;;;;2.73;2.63;;;16.30;67.00;;;;;;5049443;28;43988;-69
2021/12/12 01:36:23;;;;;;;3.17;3.07;;;16.30;67.00;;;;;;5031374;28;44144;-69
2021/12/12 01:38:51;;;;;;;2.23;2.23;;;16.20;67.10;;;;;;5049623;28;44037;-69
2021/12/12 01:41:21;;;;;;;2.90;2.80;;;16.20;67.20;;;;;;5049779;28;43929;-69
2021/12/12 01:43:48;;;;;;;2.70;2.60;;;16.20;67.50;;;;;;5049069;28;44139;-69
2021/12/12 01:46:20;;;;;;;2.70;2.60;;;16.30;67.40;;;;;;5049445;28;44206;-69
2021/12/12 01:48:52;;;;;;;2.23;2.23;;;16.30;67.00;;;;;;5049164;28;44071;-69
2021/12/12 01:51:20;;;;;;;3.17;3.07;;;16.40;66.70;;;;;;5031379;28;43572;-69
2021/12/12 01:53:49;;;;;;;2.70;2.60;;;16.40;66.70;;;;;;5049007;28;44058;-69
2021/12/12 01:56:20;;;;;;;2.87;2.77;;;16.30;66.80;;;;;;5048881;28;44116;-69
2021/12/12 01:58:49;;;;;;;2.63;2.43;;;16.30;67.00;;;;;;5049129;28;43972;-68
2021/12/12 02:01:19;;;;;;;2.77;2.67;;;16.30;67.10;;;;;;5049376;28;43762;-68
2021/12/12 02:03:50;;;;;;;2.90;2.80;;;16.20;67.10;;;;;;5048400;28;43942;-69
2021/12/12 02:06:19;;;;;;;2.63;2.53;;;16.20;67.20;;;;;;5048979;28;44135;-69
2021/12/12 02:08:48;;;;;;;2.70;2.60;;;16.20;67.40;;;;;;5048811;28;44064;-69
2021/12/12 02:11:17;;;;;;;2.50;2.43;;;16.20;67.40;;;;;;5049412;28;43551;-69
2021/12/12 02:13:47;;;;;;;2.10;2.10;;;16.20;67.40;;;;;;5048836;28;45123;-69
2021/12/12 02:16:15;;;;;;;2.30;2.20;;;16.20;67.50;;;;;;5048665;28;43913;-69
2021/12/12 02:18:47;;;;;;;2.40;2.30;;;16.20;67.50;;;;;;5048668;28;43926;-69
2021/12/12 02:21:22;;;;;;;2.53;2.50;;;16.10;67.40;;;;;;5043294;28;43974;-69
2021/12/12 02:24:19;;;;;;;2.37;2.33;;;16.10;67.70;;;;;;5048667;28;43648;-69
2021/12/12 02:35:14;;;;;;;2.70;2.60;;;16.60;66.10;;;;;;5048536;28;44025;-68
2021/12/12 02:37:42;;;;;;;2.30;2.20;;;16.60;66.00;;;;;;5030281;28;45472;-69
2021/12/12 02:40:15;;;;;;;1.80;1.80;;;16.60;66.20;;;;;;5048460;28;43991;-69
2021/12/12 02:42:43;;;;;;;2.40;2.40;;;16.50;66.40;;;;;;5049364;28;43441;-69
2021/12/12 02:45:11;;;;;;;2.57;2.47;;;16.40;66.50;;;;;;5030108;28;46634;-68
2021/12/12 02:47:40;;;;;;;2.20;2.10;;;16.40;66.70;;;;;;5048304;28;43985;-69
2021/12/12 02:50:13;;;;;;;2.20;2.10;;;16.30;66.80;;;;;;5048321;28;44012;-69
2021/12/12 02:52:43;;;;;;;2.33;2.30;;;16.30;67.00;;;;;;5048786;28;43973;-68
2021/12/12 02:55:14;;;;;;;1.83;1.83;;;16.30;67.10;;;;;;5047993;28;45564;-69
2021/12/12 02:57:42;;;;;;;2.17;2.17;;;16.20;67.10;;;;;;5048204;28;43868;-69
2021/12/12 03:00:12;;;;;;;2.10;2.10;;;16.20;67.30;;;;;;5048224;28;44111;-69
2021/12/12 03:02:45;;;;;;;2.27;2.17;;;16.20;67.50;;;;;;5030497;28;43997;-69
2021/12/12 03:05:14;;;;;;;2.10;2.10;;;16.20;67.40;;;;;;5047871;28;43942;-68
2021/12/12 03:07:42;;;;;;;2.43;2.40;;;16.30;67.10;;;;;;5048026;28;43954;-69
2021/12/12 03:10:14;;;;;;;2.07;2.07;;;16.30;66.80;;;;;;5047985;28;44060;-69
2021/12/12 03:12:42;;;;;;;2.30;2.20;;;16.40;66.80;;;;;;5048482;28;43940;-70
2021/12/12 03:15:13;;;;;;;1.90;1.90;;;16.30;66.80;;;;;;5047682;28;43932;-69
2021/12/12 03:17:42;;;;;;;2.00;2.00;;;16.30;67.00;;;;;;5047941;28;44071;-69
2021/12/12 03:20:22;;;;;;;2.13;2.10;;;16.30;67.10;;;;;;5029541;28;44010;-69
2021/12/12 03:22:52;;;;;;;1.93;1.93;;;16.20;67.10;;;;;;5048356;28;43975;-68
2021/12/12 03:25:22;;;;;;;1.80;1.80;;;16.20;67.20;;;;;;5041452;28;44003;-69
2021/12/12 03:27:50;;;;;;;1.97;1.93;;;16.20;67.30;;;;;;5047316;28;43382;-70
2021/12/12 03:30:18;;;;;;;1.80;1.80;;;16.20;67.40;;;;;;5047794;28;44012;-69
2021/12/12 03:32:46;;;;;;;2.13;2.13;;;16.10;67.30;;;;;;5048025;28;44091;-70
2021/12/12 03:35:14;;;;;;;2.00;2.00;;;16.10;67.40;;;;;;5047556;28;44967;-69
2021/12/12 03:37:42;;;;;;;2.07;2.07;;;16.10;67.40;;;;;;5047686;28;44134;-69
2021/12/12 03:40:14;;;;;;;1.90;1.90;;;16.10;67.40;;;;;;5046734;28;43424;-68
2021/12/12 03:42:44;;;;;;;1.80;1.80;;;16.10;67.70;;;;;;5030047;28;43616;-69
2021/12/12 03:45:12;;;;;;;1.90;1.90;;;16.20;67.60;;;;;;5047649;28;44417;-69
2021/12/12 03:47:42;;;;;;;2.13;2.10;;;16.30;67.40;;;;;;5047119;28;43933;-69
2021/12/12 03:50:11;;;;;;;1.97;1.90;;;16.40;66.90;;;;;;5047473;28;44005;-69
2021/12/12 03:52:39;;;;;;;1.80;1.80;;;16.50;66.30;;;;;;5047720;28;43842;-68
2021/12/12 03:55:08;;;;;;;1.97;1.87;;;16.60;66.10;;;;;;5047111;28;44973;-69
2021/12/12 03:57:36;;;;;;;1.83;1.83;;;16.60;66.10;;;;;;5046977;28;43922;-69
2021/12/12 04:00:09;;;;;;;1.67;1.67;;;16.50;66.20;;;;;;5047149;28;43997;-69
2021/12/12 04:02:37;;;;;;;2.03;1.93;;;16.50;66.30;;;;;;5029466;28;43933;-69
2021/12/12 04:05:06;;;;;;;1.90;1.90;;;16.40;66.40;;;;;;5046562;28;43813;-69
2021/12/12 04:07:34;;;;;;;2.17;2.13;;;16.40;66.60;;;;;;5046778;28;44050;-69
2021/12/12 04:10:02;;;;;;;1.70;1.70;;;16.30;66.60;;;;;;5047257;28;43937;-69
2021/12/12 04:12:30;;;;;;;1.80;1.80;;;16.30;66.70;;;;;;5029186;28;43899;-69
2021/12/12 04:14:58;;;;;;;1.80;1.70;;;16.30;66.80;;;;;;5046823;28;43908;-69
2021/12/12 04:17:29;;;;;;;1.73;1.73;;;16.20;66.80;;;;;;5028728;28;45468;-69
2021/12/12 04:19:59;;;;;;;1.60;1.60;;;16.20;66.90;;;;;;5047270;28;43802;-70
2021/12/12 04:22:27;;;;;;;1.60;1.60;;;16.20;67.10;;;;;;5047584;28;43875;-69
2021/12/12 04:24:56;;;;;;;1.60;1.60;;;16.20;67.30;;;;;;5046822;28;43922;-69
2021/12/12 04:27:24;;;;;;;1.83;1.83;;;16.30;67.00;;;;;;5046609;28;44007;-69
2021/12/12 04:29:53;;;;;;;1.77;1.77;;;16.30;66.70;;;;;;5046693;28;43413;-69
2021/12/12 04:32:22;;;;;;;1.50;1.50;;;16.40;66.40;;;;;;5046963;28;44197;-70
2021/12/12 04:34:52;;;;;;;1.60;1.60;;;16.40;66.60;;;;;;5046455;28;45172;-69
2021/12/12 04:37:21;;;;;;;1.90;1.90;;;16.30;66.70;;;;;;5046770;28;43863;-70
2021/12/12 04:39:52;;;;;;;2.23;2.13;;;16.30;66.70;;;;;;5046482;28;44033;-68
2021/12/12 04:42:22;;;;;;;2.43;2.20;;;16.20;66.80;;;;;;5047128;28;43957;-70
2021/12/12 04:44:51;;;;;;;3.20;2.50;;;16.20;66.90;;;;;;5046347;28;44031;-68
2021/12/12 04:50:17;;;;;;;4.80;3.37;;;16.20;67.10;;;;;;5028475;28;44003;-69
2021/12/12 04:52:47;;;;;;;5.57;3.90;;;16.20;67.20;;;;;;5047064;28;43917;-69
2021/12/12 04:55:18;;;;;;;6.50;4.17;;;16.10;67.20;;;;;;5046275;28;43905;-69
2021/12/12 04:57:47;;;;;;;9.80;4.97;;;16.20;67.30;;;;;;5046063;28;43959;-69
2021/12/12 05:00:17;;;;;;;11.20;4.87;;;16.10;67.20;;;;;;5046387;28;43942;-68
2021/12/12 05:02:49;;;;;;;16.00;6.20;;;16.10;67.40;;;;;;5046897;28;44075;-69
2021/12/12 05:05:22;;;;;;;11.80;5.50;;;16.10;67.60;;;;;;5045567;28;45072;-69
2021/12/12 05:07:53;;;;;;;14.40;6.23;;;16.30;67.40;;;;;;5046202;28;43958;-69
2021/12/12 05:10:24;;;;;;;14.63;6.40;;;16.40;67.00;;;;;;5046450;28;43412;-69
2021/12/12 05:12:55;;;;;;;13.83;5.80;;;16.50;66.50;;;;;;5046622;28;43816;-68
2021/12/12 05:15:26;;;;;;;13.10;5.87;;;16.60;66.10;;;;;;5039959;28;44017;-68
2021/12/12 05:17:56;;;;;;;12.73;5.63;;;16.60;65.90;;;;;;5045994;28;44076;-68
2021/12/12 05:20:28;;;;;;;10.67;5.57;;;16.60;65.80;;;;;;5046291;28;43893;-69
2021/12/12 05:22:56;;;;;;;11.47;5.70;;;16.50;65.90;;;;;;5046566;28;43972;-69
2021/12/12 05:25:26;;;;;;;11.60;5.80;;;16.50;66.20;;;;;;5045866;28;45130;-68
2021/12/12 05:27:55;;;;;;;11.57;5.50;;;16.40;66.30;;;;;;5045780;28;44177;-69
2021/12/12 05:30:29;;;;;;;10.40;4.80;;;16.40;67.20;;;;;;5045869;28;43854;-68
2021/12/12 05:32:57;;;;;;;11.37;5.70;;;16.30;66.60;;;;;;5046527;28;43926;-69
2021/12/12 05:35:29;;;;;;;13.17;5.90;;;16.30;66.70;;;;;;5027699;28;45803;-69
2021/12/12 05:37:57;;;;;;;12.10;5.67;;;16.20;66.80;;;;;;5045699;28;43944;-69
2021/12/12 05:40:26;;;;;;;13.83;6.13;;;16.30;67.00;;;;;;5045823;28;43914;-69
2021/12/12 05:42:57;;;;;;;14.37;6.13;;;16.20;67.00;;;;;;5045953;28;43365;-68
2021/12/12 05:45:25;;;;;;;10.33;6.17;;;16.20;67.20;;;;;;5045698;28;44977;-69
2021/12/12 05:47:53;;;;;;;9.13;5.33;;;16.30;67.00;;;;;;5045857;28;44157;-69
2021/12/12 05:50:21;;;;;;;10.60;5.40;;;16.40;66.70;;;;;;5045610;28;44020;-70
2021/12/12 05:52:54;;;;;;;10.77;5.30;;;16.40;66.40;;;;;;5046011;28;43881;-69
2021/12/12 05:55:23;;;;;;;10.40;5.27;;;16.40;66.40;;;;;;5045725;28;44711;-69
2021/12/12 05:57:54;;;;;;;7.30;4.83;;;16.40;66.60;;;;;;5045552;28;43918;-69
2021/12/12 06:00:25;;;;;;;10.70;5.03;;;16.30;66.60;;;;;;5045780;28;43993;-69
2021/12/12 06:02:54;;;;;;;8.27;5.00;;;16.30;66.70;;;;;;5046162;28;44036;-68
2021/12/12 06:05:22;;;;;;;8.93;5.20;;;16.30;66.80;;;;;;5048585;28;45063;-69
2021/12/12 06:07:51;;;;;;;9.10;5.33;;;16.30;66.90;;;;;;5048866;28;43964;-68
2021/12/12 06:10:19;;;;;;;8.73;5.20;;;16.20;67.00;;;;;;5048772;28;43367;-69
2021/12/12 06:12:47;;;;;;;8.57;5.20;;;16.20;67.10;;;;;;5049273;28;44048;-68
2021/12/12 06:15:17;;;;;;;7.63;5.33;;;16.20;67.20;;;;;;5049103;28;43935;-69
2021/12/12 06:17:45;;;;;;;10.03;5.33;;;16.20;67.20;;;;;;5048978;28;44007;-69
2021/12/12 06:20:13;;;;;;;8.57;4.90;;;16.10;67.90;;;;;;5030828;28;43984;-69
2021/12/12 06:22:41;;;;;;;11.10;5.37;;;16.10;67.30;;;;;;5049061;28;43893;-69
2021/12/12 06:25:11;;;;;;;8.50;5.17;;;16.10;67.40;;;;;;5048709;28;44115;-69
2021/12/12 06:27:39;;;;;;;10.70;5.87;;;16.20;67.30;;;;;;5041955;28;43863;-69
2021/12/12 06:30:08;;;;;;;7.23;4.87;;;16.40;67.00;;;;;;5042176;28;43341;-68
2021/12/12 06:32:36;;;;;;;8.50;5.07;;;16.50;66.60;;;;;;5042525;28;44008;-69
2021/12/12 06:35:04;;;;;;;6.83;4.73;;;16.60;66.20;;;;;;5041728;28;43999;-68
2021/12/12 06:37:32;;;;;;;7.00;4.60;;;16.60;66.00;;;;;;5042085;28;43898;-68
2021/12/12 06:40:00;;;;;;;6.50;4.73;;;16.60;65.90;;;;;;5023959;28;44104;-69
2021/12/12 06:42:30;;;;;;;6.03;4.40;;;16.50;66.00;;;;;;5042569;28;43956;-69
2021/12/12 06:45:01;;;;;;;9.03;4.83;;;16.40;66.20;;;;;;5042646;28;45033;-70
2021/12/12 06:47:29;;;;;;;9.03;4.80;;;16.40;66.40;;;;;;5048182;28;43961;-69
2021/12/12 06:49:57;;;;;;;6.10;4.40;;;16.30;66.50;;;;;;5048337;28;44027;-69
2021/12/12 06:52:25;;;;;;;5.77;4.63;;;16.30;66.70;;;;;;5048695;28;43945;-69
2021/12/12 06:54:53;;;;;;;6.03;4.30;;;16.30;67.00;;;;;;5048027;28;44006;-69
2021/12/12 06:57:21;;;;;;;7.07;4.63;;;16.20;66.90;;;;;;5029930;28;45184;-68
2021/12/12 06:59:50;;;;;;;7.40;4.43;;;16.20;67.00;;;;;;5048002;28;43959;-69
2021/12/12 07:02:18;;;;;;;6.27;4.90;;;16.20;67.10;;;;;;5048508;28;44020;-69
2021/12/12 07:04:47;;;;;;;8.50;4.40;;;16.20;67.30;;;;;;5047590;28;43914;-69
2021/12/12 07:07:16;;;;;;;5.90;4.50;;;16.20;67.30;;;;;;5029899;28;45326;-69
2021/12/12 07:09:44;;;;;;;6.33;4.17;;;16.30;67.00;;;;;;5048147;28;43902;-70
2021/12/12 07:12:13;;;;;;;5.30;4.17;;;16.30;66.70;;;;;;5048389;28;43973;-69
2021/12/12 07:14:41;;;;;;;6.93;4.43;;;16.40;66.60;;;;;;5046778;28;43921;-69
2021/12/12 07:17:11;;;;;;;5.20;4.30;;;16.30;66.60;;;;;;5029419;28;45026;-68
2021/12/12 07:19:41;;;;;;;7.27;4.20;;;16.30;66.70;;;;;;5029555;28;43937;-69
2021/12/12 07:22:09;;;;;;;4.60;4.00;;;16.30;66.80;;;;;;5048315;28;43949;-69
2021/12/12 07:24:37;;;;;;;6.03;4.20;;;16.20;66.90;;;;;;5047700;28;44047;-69
2021/12/12 07:27:06;;;;;;;6.73;4.23;;;16.20;67.10;;;;;;5047098;28;44075;-69
2021/12/12 07:29:34;;;;;;;5.67;4.20;;;16.20;67.20;;;;;;5047244;28;44048;-70
2021/12/12 07:32:02;;;;;;;4.83;4.33;;;16.20;67.20;;;;;;5047716;28;44242;-69
2021/12/12 07:34:31;;;;;;;6.73;4.17;;;16.10;67.10;;;;;;5047019;28;44039;-69
2021/12/12 07:37:01;;;;;;;4.07;3.73;;;16.20;67.40;;;;;;5047146;28;44125;-69
2021/12/12 07:39:30;;;;;;;5.57;3.70;;;16.10;67.30;;;;;;5047062;28;43975;-68
2021/12/12 07:41:59;;;;;;;4.90;3.60;;;16.10;67.30;;;;;;5047327;28;44002;-69
2021/12/12 07:44:31;;;;;;;4.30;3.90;;;16.10;67.40;;;;;;5047453;28;43970;-68
2021/12/12 07:46:59;;;;;;;4.83;3.80;;;16.10;67.60;;;;;;5028944;28;43452;-69
2021/12/12 07:49:30;;;;;;;6.50;3.97;;;16.20;67.40;;;;;;5046874;28;44012;-69
2021/12/12 07:51:59;;;;;;;5.57;4.03;;;16.40;67.00;;;;;;5047547;28;44065;-69
2021/12/12 07:54:27;;;;;;;4.37;3.87;;;16.50;67.20;;;;;;5046649;28;43926;-69
2021/12/12 07:56:55;;;;;;;4.20;3.53;;;16.60;66.20;;;;;;5046710;28;43491;-68
2021/12/12 07:59:23;;;;;;;3.93;3.60;;;16.60;66.00;;;;;;5046764;28;43968;-70
2021/12/12 08:01:52;;;;;;;4.77;3.73;;;16.60;65.90;;;;;;5047259;28;43974;-69
2021/12/12 08:04:22;;;;;;;3.53;3.23;;;16.50;66.10;;;;;;5046095;28;43863;-69
2021/12/12 08:06:50;;;;;;;4.57;3.33;;;16.50;66.30;;;;;;5047003;28;44060;-69
2021/12/12 08:09:19;;;;;;;3.40;3.20;;;16.40;66.40;;;;;;5046785;28;43988;-68
2021/12/12 08:11:47;;;;;;;3.50;3.10;;;16.30;66.50;;;;;;5047040;28;43974;-69
2021/12/12 08:14:17;;;;;;;3.33;3.07;;;16.30;66.70;;;;;;5046724;28;43970;-69
2021/12/12 08:16:45;;;;;;;3.10;2.90;;;16.30;66.90;;;;;;5046798;28;43358;-68
2021/12/12 08:19:13;;;;;;;4.30;3.70;;;16.30;67.00;;;;;;5046829;28;43433;-69
2021/12/12 08:21:41;;;;;;;3.90;3.30;;;16.20;67.00;;;;;;5046894;28;43838;-69
2021/12/12 08:24:11;;;;;;;3.33;3.00;;;16.20;67.00;;;;;;5046495;28;43942;-68
2021/12/12 08:26:42;;;;;;;3.40;3.10;;;16.20;67.20;;;;;;5045816;28;43910;-69
2021/12/12 08:29:10;;;;;;;3.63;3.33;;;16.20;67.30;;;;;;5046577;28;43754;-69
2021/12/12 08:31:38;;;;;;;3.30;3.10;;;16.30;67.00;;;;;;5028561;28;44052;-69
2021/12/12 08:34:08;;;;;;;3.13;2.93;;;16.30;66.40;;;;;;5046203;28;43906;-69
2021/12/12 08:36:37;;;;;;;2.93;2.73;;;16.30;66.30;;;;;;5045880;28;44128;-68
2021/12/12 08:39:05;;;;;;;3.53;2.97;;;16.30;66.50;;;;;;5008431;28;44021;-69
2021/12/12 08:41:33;;;;;;;3.87;3.10;;;16.30;66.50;;;;;;5039917;28;43973;-69
2021/12/12 08:44:02;;;;;;;3.33;3.13;;;16.30;66.70;;;;;;5039482;28;44129;-70
2021/12/12 08:46:30;;;;;;;3.27;2.97;;;16.20;66.80;;;;;;5039676;28;43469;-69
2021/12/12 08:48:59;;;;;;;3.27;3.07;;;16.20;66.80;;;;;;5039815;28;43400;-69
2021/12/12 08:51:30;;;;;;;3.10;2.90;;;16.20;66.90;;;;;;5040187;28;43969;-69
2021/12/12 08:54:01;;;;;;;3.33;3.00;;;16.10;67.00;;;;;;5040190;28;43987;-69
2021/12/12 08:56:42;;;;;;;3.23;2.93;;;16.10;67.10;;;;;;5046114;28;43991;-69
2021/12/12 08:59:12;;;;;;;3.20;2.90;;;16.10;67.10;;;;;;5046156;28;43910;-69
2021/12/12 09:01:40;;;;;;;2.80;2.70;;;16.10;67.20;;;;;;5046722;28;43988;-69
2021/12/12 09:04:09;;;;;;;2.93;2.70;;;16.10;67.20;;;;;;5045364;28;45043;-69
2021/12/12 09:07:00;;;;;;;3.57;2.80;;;16.10;67.30;;;;;;5045952;28;44018;-69
2021/12/12 09:09:30;;;;;;;3.10;2.87;;;16.10;67.60;;;;;;5046035;28;43991;-69
2021/12/12 09:12:01;;;;;;;2.60;2.50;;;16.20;67.40;;;;;;5039782;28;43945;-70
2021/12/12 09:14:33;;;;;;;3.13;2.93;;;16.30;66.90;;;;;;5018535;28;45724;-68
2021/12/12 09:17:03;;;;;;;3.23;2.93;;;16.50;66.50;;;;;;5045794;28;43910;-69
2021/12/12 09:19:36;;;;;;;2.70;2.50;;;16.60;66.10;;;;;;5027629;28;43957;-69
2021/12/12 09:22:05;;;;;;;2.57;2.43;;;16.60;65.90;;;;;;5027916;28;43901;-70
2021/12/12 09:24:43;;;;;;;3.23;2.93;;;16.50;65.90;;;;;;5027520;28;45733;-70
2021/12/12 09:27:15;;;;;;;2.70;2.47;;;16.50;66.20;;;;;;5027480;28;44039;-69
2021/12/12 09:29:47;;;;;;;2.93;2.73;;;16.40;66.30;;;;;;5045931;28;43895;-69
2021/12/12 09:32:17;;;;;;;2.90;2.80;;;16.40;66.50;;;;;;5046341;28;43807;-69
2021/12/12 09:34:49;;;;;;;2.87;2.67;;;16.30;66.70;;;;;;5045755;28;45114;-69
2021/12/12 09:37:22;;;;;;;2.57;2.40;;;16.30;66.80;;;;;;5045714;28;43993;-69
2021/12/12 09:39:56;;;;;;;2.50;2.40;;;16.20;66.90;;;;;;5048936;28;44016;-68
2021/12/12 09:42:34;;;;;;;3.00;2.80;;;16.20;67.10;;;;;;5043304;28;43353;-69
2021/12/12 09:45:25;;;;;;;3.00;2.80;;;16.20;67.20;;;;;;5048942;28;43593;-69
2021/12/12 09:48:28;;;;;;;2.87;2.67;;;16.10;67.20;;;;;;5048951;28;43942;-69
2021/12/12 09:51:15;;;;;;;2.40;2.20;;;16.20;67.60;;;;;;5049032;28;44315;-69
2021/12/12 09:53:53;;;;;;;3.27;2.30;;;16.20;67.30;;;;;;5049785;28;43456;-69
2021/12/12 09:56:27;;;;;;;2.40;2.30;;;16.30;66.90;;;;;;5042444;28;43609;-69
2021/12/12 09:59:00;;;;;;;2.60;2.40;;;16.30;66.80;;;;;;5030505;28;44694;-69
2021/12/12 10:01:31;;;;;;;2.40;2.20;;;16.20;66.90;;;;;;5048804;28;43770;-69
2021/12/12 10:04:10;;;;;;;2.57;2.47;;;16.20;67.10;;;;;;5048718;28;43884;-69
2021/12/12 10:06:45;;;;;;;2.87;2.67;;;16.10;67.00;;;;;;5048803;28;43952;-68
2021/12/12 10:09:15;;;;;;;2.60;2.50;;;16.10;67.90;;;;;;5049013;28;43839;-69
2021/12/12 10:11:45;;;;;;;2.23;2.13;;;16.10;67.30;;;;;;5048707;28;43380;-68
2021/12/12 10:14:15;;;;;;;3.10;2.90;;;16.10;67.40;;;;;;5031204;28;43626;-68
2021/12/12 10:16:49;;;;;;;2.50;2.37;;;16.10;67.50;;;;;;5048608;28;44035;-69
2021/12/12 10:19:27;;;;;;;2.67;2.47;;;16.00;67.40;;;;;;5048980;28;43380;-69
2021/12/12 10:22:02;;;;;;;2.17;2.07;;;16.00;67.40;;;;;;5030264;28;43953;-68
2021/12/12 10:24:31;;;;;;;2.30;2.20;;;16.10;67.50;;;;;;5049062;28;43969;-69
2021/12/12 10:27:04;;;;;;;2.40;2.20;;;16.00;67.40;;;;;;5048206;28;44935;-69
2021/12/12 10:29:35;;;;;;;2.30;2.20;;;16.10;67.60;;;;;;5048465;28;44102;-69
2021/12/12 10:32:08;;;;;;;2.27;2.17;;;16.10;67.80;;;;;;5030243;28;43434;-69
2021/12/12 10:34:40;;;;;;;2.13;2.03;;;16.20;67.60;;;;;;5048951;28;43489;-69
2021/12/12 10:37:09;;;;;;;2.60;2.43;;;16.30;67.10;;;;;;5048114;28;43920;-69
2021/12/12 10:39:39;;;;;;;2.37;2.17;;;16.50;66.70;;;;;;5029831;28;46191;-69
2021/12/12 10:42:09;;;;;;;2.20;2.10;;;16.60;66.30;;;;;;5048096;28;43959;-69
2021/12/12 10:44:39;;;;;;;2.40;2.30;;;16.60;66.00;;;;;;5048392;28;43962;-69
2021/12/12 10:47:13;;;;;;;2.43;2.23;;;16.60;66.00;;;;;;5048052;28;43960;-70
2021/12/12 10:49:44;;;;;;;2.30;2.20;;;16.50;66.20;;;;;;5047951;28;44012;-69
2021/12/12 10:52:16;;;;;;;2.03;2.00;;;16.40;66.30;;;;;;5048316;28;43992;-69
2021/12/12 10:54:49;;;;;;;2.20;2.10;;;16.40;66.50;;;;;;5030416;28;43800;-69
2021/12/12 10:57:18;;;;;;;2.33;2.20;;;16.30;66.70;;;;;;5047891;28;43977;-68
2021/12/12 10:59:48;;;;;;;1.93;1.83;;;16.30;66.90;;;;;;5047843;28;44079;-70
2021/12/12 11:02:19;;;;;;;2.17;2.07;;;16.20;67.00;;;;;;5048518;28;44006;-69
2021/12/12 11:04:48;;;;;;;2.30;2.20;;;16.20;67.10;;;;;;5047650;28;44017;-69
2021/12/12 11:07:19;;;;;;;2.10;2.00;;;16.20;67.20;;;;;;5047990;28;43972;-69
2021/12/12 11:09:53;;;;;;;2.40;2.30;;;16.20;67.30;;;;;;5047732;28;44077;-69
2021/12/12 11:12:27;;;;;;;2.20;2.10;;;16.10;67.50;;;;;;5047820;28;43901;-69
2021/12/12 11:14:57;;;;;;;1.97;1.97;;;16.20;67.40;;;;;;5029894;28;43953;-69
2021/12/12 11:17:28;;;;;;;1.97;1.87;;;16.30;67.20;;;;;;5047339;28;43740;-68
2021/12/12 11:19:59;;;;;;;1.80;1.70;;;16.30;66.80;;;;;;5047988;28;43967;-69
2021/12/12 11:22:28;;;;;;;1.77;1.77;;;16.30;66.90;;;;;;5029106;28;44008;-69
2021/12/12 11:24:59;;;;;;;1.77;1.77;;;16.30;67.00;;;;;;5047793;28;44055;-69
2021/12/12 11:27:31;;;;;;;1.87;1.77;;;16.20;67.10;;;;;;5047342;28;43811;-68
2021/12/12 11:30:01;;;;;;;2.00;2.00;;;16.20;67.20;;;;;;5029027;28;44199;-69
2021/12/12 11:32:31;;;;;;;2.10;2.00;;;16.20;67.30;;;;;;5040443;28;43799;-69
2021/12/12 11:34:59;;;;;;;2.03;1.93;;;16.10;67.40;;;;;;5041233;28;44038;-69
2021/12/12 11:37:32;;;;;;;1.93;1.83;;;16.10;67.40;;;;;;5040752;28;44143;-69
2021/12/12 11:40:02;;;;;;;1.67;1.60;;;16.10;68.20;;;;;;5023386;28;45160;-69
2021/12/12 11:42:33;;;;;;;1.90;1.80;;;16.10;67.60;;;;;;5028778;28;43997;-69
2021/12/12 11:45:06;;;;;;;2.10;2.00;;;16.10;67.60;;;;;;5048166;28;44036;-69
2021/12/12 11:47:57;;;;;;;1.97;1.87;;;16.10;67.60;;;;;;5047284;28;44029;-68
2021/12/12 11:50:36;;;;;;;2.00;1.90;;;16.10;67.70;;;;;;5047031;28;43484;-68
2021/12/12 11:53:05;;;;;;;1.87;1.80;;;16.10;67.80;;;;;;5040797;28;43980;-68
2021/12/12 11:55:36;;;;;;;1.60;1.60;;;16.20;67.60;;;;;;5041037;28;43954;-69
2021/12/12 11:58:05;;;;;;;1.90;1.80;;;16.30;67.30;;;;;;5046773;28;43964;-69
2021/12/12 12:00:35;;;;;;;2.03;1.93;;;16.40;66.80;;;;;;5046236;28;43979;-70
2021/12/12 12:03:24;;;;;;;1.70;1.60;;;16.50;66.40;;;;;;5046402;28;44058;-69
2021/12/12 12:05:57;;;;;;;1.80;1.70;;;16.60;66.20;;;;;;5046586;28;43396;-69
2021/12/12 12:08:29;;;;;;;1.90;1.80;;;16.50;66.00;;;;;;5028493;28;46267;-68
2021/12/12 12:11:12;;;;;;;1.80;1.70;;;16.50;66.20;;;;;;5046915;28;43880;-69
2021/12/12 12:13:53;;;;;;;1.60;1.60;;;16.40;66.40;;;;;;5022753;28;44023;-69
2021/12/12 12:16:36;;;;;;;1.50;1.50;;;16.30;66.60;;;;;;5029056;28;44052;-70
2021/12/12 12:19:12;;;;;;;1.83;1.73;;;16.30;66.80;;;;;;5028368;28;46292;-69
2021/12/12 12:21:42;;;;;;;1.67;1.67;;;16.20;66.80;;;;;;5046496;28;43957;-69
2021/12/12 12:24:14;;;;;;;1.73;1.63;;;16.20;66.90;;;;;;5046407;28;43967;-69
2021/12/12 12:26:52;;;;;;;1.80;1.70;;;16.20;67.00;;;;;;5047182;28;44094;-69
2021/12/12 12:30:08;;;;;;;2.13;2.03;;;16.10;67.00;;;;;;5041306;28;43992;-69
2021/12/12 12:33:08;;;;;;;5.33;2.10;;;16.10;67.20;;;;;;5046492;28;43441;-69
2021/12/12 12:36:10;;;;;;;1.73;1.63;;;16.10;67.60;;;;;;5028275;28;44040;-69
2021/12/12 12:39:15;;;;;;;2.33;1.67;;;16.20;67.30;;;;;;5028430;28;44143;-69
2021/12/12 12:42:21;;;;;;;3.17;1.87;;;16.30;66.90;;;;;;5046279;28;44013;-69
2021/12/12 12:45:32;;;;;;;2.00;1.90;;;16.30;66.60;;;;;;5039747;28;43965;-69
2021/12/12 12:48:52;;;;;;;1.90;1.77;;;16.30;66.90;;;;;;5045828;28;43890;-69
2021/12/12 12:51:27;;;;;;;1.70;1.70;;;16.20;66.90;;;;;;5046158;28;44060;-69
2021/12/12 12:54:24;;;;;;;1.70;1.60;;;16.20;67.10;;;;;;5027825;28;46412;-68
2021/12/12 12:57:25;;;;;;;1.90;1.80;;;16.10;67.10;;;;;;4999669;28;44228;-70
2021/12/12 13:00:07;;;;;;;1.80;1.70;;;16.10;67.30;;;;;;5027862;28;44058;-69
2021/12/12 13:03:02;;;;;;;1.70;1.70;;;16.10;67.30;;;;;;5046713;28;43758;-70
2021/12/12 13:05:57;;;;;;;2.50;2.00;;;16.10;67.40;;;;;;5039739;28;43997;-69
2021/12/12 13:09:05;;;;;;;1.63;1.63;;;16.10;67.50;;;;;;5046110;28;44009;-69
2021/12/12 13:11:38;;;;;;;1.67;1.57;;;16.10;67.50;;;;;;5046045;28;43967;-68
2021/12/12 13:14:12;;;;;;;2.27;1.97;;;16.00;67.50;;;;;;5048132;28;43953;-69
2021/12/12 13:16:45;;;;;;;2.30;1.70;;;16.10;68.00;;;;;;5049505;28;43878;-70
2021/12/12 13:19:30;;;;;;;1.87;1.60;;;16.20;67.90;;;;;;5049548;28;44027;-69
2021/12/12 13:22:02;;;;;;;1.90;1.80;;;16.20;67.60;;;;;;5049681;28;43866;-69